sensor_id;sensor_type;location;lat;lon;timestamp;P1;durP1;ratioP1;P2;durP2;ratioP2
68256;SDS011;55069;51.568;4.656;2022-09-13T00:01:12;8.95;;;6.60;;
68256;SDS011;55069;51.568;4.656;2022-09-13T00:03:38;10.50;;;7.50;;
68256;SDS011;55069;51.568;4.656;2022-09-13T00:06:08;10.27;;;7.07;;
68256;SDS011;55069;51.568;4.656;2022-09-13T00:08:38;9.82;;;6.80;;
68256;SDS011;55069;51.568;4.656;2022-09-13T00:11:04;9.27;;;7.53;;
68256;SDS011;55069;51.568;4.656;2022-09-13T00:13:29;8.20;;;6.97;;
68256;SDS011;55069;51.568;4.656;2022-09-13T00:15:55;14.52;;;7.30;;
68256;SDS011;55069;51.568;4.656;2022-09-13T00:18:21;11.73;;;7.63;;
68256;SDS011;55069;51.568;4.656;2022-09-13T00:20:46;10.73;;;7.95;;
68256;SDS011;55069;51.568;4.656;2022-09-13T00:23:12;11.63;;;7.10;;
68256;SDS011;55069;51.568;4.656;2022-09-13T00:25:38;8.97;;;6.70;;
68256;SDS011;55069;51.568;4.656;2022-09-13T00:28:04;11.95;;;6.60;;
68256;SDS011;55069;51.568;4.656;2022-09-13T00:30:30;7.88;;;5.90;;
68256;SDS011;55069;51.568;4.656;2022-09-13T00:32:56;7.53;;;6.20;;
68256;SDS011;55069;51.568;4.656;2022-09-13T00:35:22;10.15;;;5.72;;
68256;SDS011;55069;51.568;4.656;2022-09-13T00:37:48;12.85;;;6.78;;
68256;SDS011;55069;51.568;4.656;2022-09-13T00:40:14;15.68;;;6.93;;
68256;SDS011;55069;51.568;4.656;2022-09-13T00:42:39;8.47;;;5.90;;
68256;SDS011;55069;51.568;4.656;2022-09-13T00:47:38;9.32;;;6.05;;
68256;SDS011;55069;51.568;4.656;2022-09-13T00:50:17;8.23;;;6.00;;
68256;SDS011;55069;51.568;4.656;2022-09-13T00:55:33;7.05;;;5.38;;
68256;SDS011;55069;51.568;4.656;2022-09-13T00:58:07;8.80;;;6.30;;
68256;SDS011;55069;51.568;4.656;2022-09-13T01:00:38;9.18;;;6.03;;
68256;SDS011;55069;51.568;4.656;2022-09-13T01:03:05;9.77;;;6.27;;
68256;SDS011;55069;51.568;4.656;2022-09-13T01:05:37;11.57;;;7.40;;
68256;SDS011;55069;51.568;4.656;2022-09-13T01:08:06;10.30;;;6.43;;
68256;SDS011;55069;51.568;4.656;2022-09-13T01:10:37;7.18;;;5.53;;
68256;SDS011;55069;51.568;4.656;2022-09-13T01:13:08;11.07;;;6.00;;
68256;SDS011;55069;51.568;4.656;2022-09-13T01:15:41;9.07;;;6.40;;
68256;SDS011;55069;51.568;4.656;2022-09-13T01:18:08;9.73;;;6.25;;
68256;SDS011;55069;51.568;4.656;2022-09-13T01:20:45;11.73;;;6.35;;
68256;SDS011;55069;51.568;4.656;2022-09-13T01:31:50;7.78;;;6.10;;
68256;SDS011;55069;51.568;4.656;2022-09-13T01:40:30;11.98;;;7.20;;
68256;SDS011;55069;51.568;4.656;2022-09-13T01:45:55;7.65;;;6.03;;
68256;SDS011;55069;51.568;4.656;2022-09-13T01:48:43;12.63;;;8.07;;
68256;SDS011;55069;51.568;4.656;2022-09-13T01:51:22;8.13;;;5.63;;
68256;SDS011;55069;51.568;4.656;2022-09-13T01:56:32;10.68;;;7.45;;
68256;SDS011;55069;51.568;4.656;2022-09-13T01:59:28;12.05;;;6.10;;
68256;SDS011;55069;51.568;4.656;2022-09-13T02:02:11;8.88;;;6.13;;
68256;SDS011;55069;51.568;4.656;2022-09-13T02:04:52;11.02;;;6.00;;
68256;SDS011;55069;51.568;4.656;2022-09-13T02:07:25;8.80;;;6.55;;
68256;SDS011;55069;51.568;4.656;2022-09-13T02:09:59;10.60;;;7.25;;
68256;SDS011;55069;51.568;4.656;2022-09-13T02:12:31;9.15;;;6.05;;
68256;SDS011;55069;51.568;4.656;2022-09-13T02:15:08;6.03;;;5.00;;
68256;SDS011;55069;51.568;4.656;2022-09-13T02:17:37;8.60;;;6.68;;
68256;SDS011;55069;51.568;4.656;2022-09-13T02:20:12;7.55;;;5.78;;
68256;SDS011;55069;51.568;4.656;2022-09-13T02:22:45;9.93;;;6.88;;
68256;SDS011;55069;51.568;4.656;2022-09-13T02:25:16;14.95;;;6.55;;
68256;SDS011;55069;51.568;4.656;2022-09-13T02:27:45;8.75;;;6.63;;
68256;SDS011;55069;51.568;4.656;2022-09-13T02:30:13;10.05;;;7.32;;
68256;SDS011;55069;51.568;4.656;2022-09-13T02:32:48;11.55;;;6.97;;
68256;SDS011;55069;51.568;4.656;2022-09-13T02:35:21;8.87;;;6.07;;
68256;SDS011;55069;51.568;4.656;2022-09-13T02:37:54;11.27;;;7.47;;
68256;SDS011;55069;51.568;4.656;2022-09-13T02:40:25;8.80;;;6.13;;
68256;SDS011;55069;51.568;4.656;2022-09-13T02:43:00;14.25;;;7.10;;
68256;SDS011;55069;51.568;4.656;2022-09-13T02:45:37;10.13;;;6.57;;
68256;SDS011;55069;51.568;4.656;2022-09-13T02:48:18;7.77;;;5.70;;
68256;SDS011;55069;51.568;4.656;2022-09-13T03:01:37;7.80;;;6.60;;
68256;SDS011;55069;51.568;4.656;2022-09-13T03:04:05;10.43;;;6.45;;
68256;SDS011;55069;51.568;4.656;2022-09-13T03:06:31;8.77;;;6.43;;
68256;SDS011;55069;51.568;4.656;2022-09-13T03:08:58;12.07;;;6.82;;
68256;SDS011;55069;51.568;4.656;2022-09-13T03:16:51;8.23;;;6.03;;
68256;SDS011;55069;51.568;4.656;2022-09-13T03:30:30;11.35;;;7.15;;
68256;SDS011;55069;51.568;4.656;2022-09-13T03:33:06;10.20;;;6.38;;
68256;SDS011;55069;51.568;4.656;2022-09-13T03:38:23;12.23;;;6.60;;
68256;SDS011;55069;51.568;4.656;2022-09-13T03:40:52;13.23;;;6.43;;
68256;SDS011;55069;51.568;4.656;2022-09-13T03:43:39;11.15;;;7.32;;
68256;SDS011;55069;51.568;4.656;2022-09-13T03:46:20;8.38;;;6.90;;
68256;SDS011;55069;51.568;4.656;2022-09-13T03:48:55;13.30;;;8.32;;
68256;SDS011;55069;51.568;4.656;2022-09-13T03:51:26;8.60;;;7.00;;
68256;SDS011;55069;51.568;4.656;2022-09-13T03:53:54;7.47;;;6.32;;
68256;SDS011;55069;51.568;4.656;2022-09-13T03:56:22;12.68;;;8.55;;
68256;SDS011;55069;51.568;4.656;2022-09-13T03:58:48;14.83;;;8.73;;
68256;SDS011;55069;51.568;4.656;2022-09-13T04:01:18;13.65;;;8.00;;
68256;SDS011;55069;51.568;4.656;2022-09-13T04:03:46;11.15;;;8.63;;
68256;SDS011;55069;51.568;4.656;2022-09-13T04:06:12;9.13;;;6.78;;
68256;SDS011;55069;51.568;4.656;2022-09-13T04:08:37;9.97;;;7.77;;
68256;SDS011;55069;51.568;4.656;2022-09-13T04:11:03;8.50;;;6.18;;
68256;SDS011;55069;51.568;4.656;2022-09-13T04:13:29;11.15;;;7.30;;
68256;SDS011;55069;51.568;4.656;2022-09-13T04:15:59;7.75;;;6.47;;
68256;SDS011;55069;51.568;4.656;2022-09-13T04:18:26;8.30;;;6.40;;
68256;SDS011;55069;51.568;4.656;2022-09-13T04:20:53;8.13;;;6.43;;
68256;SDS011;55069;51.568;4.656;2022-09-13T04:23:20;11.47;;;6.67;;
68256;SDS011;55069;51.568;4.656;2022-09-13T04:25:46;13.32;;;6.28;;
68256;SDS011;55069;51.568;4.656;2022-09-13T04:28:12;8.88;;;6.80;;
68256;SDS011;55069;51.568;4.656;2022-09-13T04:30:37;10.45;;;5.80;;
68256;SDS011;55069;51.568;4.656;2022-09-13T04:33:03;11.23;;;6.53;;
68256;SDS011;55069;51.568;4.656;2022-09-13T04:35:29;11.15;;;7.03;;
68256;SDS011;55069;51.568;4.656;2022-09-13T04:37:54;10.00;;;6.77;;
68256;SDS011;55069;51.568;4.656;2022-09-13T04:40:22;7.85;;;6.40;;
68256;SDS011;55069;51.568;4.656;2022-09-13T04:42:47;12.47;;;8.57;;
68256;SDS011;55069;51.568;4.656;2022-09-13T04:45:13;13.50;;;7.88;;
68256;SDS011;55069;51.568;4.656;2022-09-13T04:47:39;9.10;;;7.33;;
68256;SDS011;55069;51.568;4.656;2022-09-13T04:50:04;10.30;;;7.35;;
68256;SDS011;55069;51.568;4.656;2022-09-13T04:52:31;11.03;;;7.87;;
68256;SDS011;55069;51.568;4.656;2022-09-13T04:54:57;8.55;;;6.78;;
68256;SDS011;55069;51.568;4.656;2022-09-13T04:57:26;11.60;;;7.72;;
68256;SDS011;55069;51.568;4.656;2022-09-13T04:59:54;9.57;;;7.38;;
68256;SDS011;55069;51.568;4.656;2022-09-13T05:02:20;10.90;;;8.37;;
68256;SDS011;55069;51.568;4.656;2022-09-13T05:04:45;14.60;;;8.83;;
68256;SDS011;55069;51.568;4.656;2022-09-13T05:07:11;13.77;;;7.78;;
68256;SDS011;55069;51.568;4.656;2022-09-13T05:09:36;9.83;;;7.23;;
68256;SDS011;55069;51.568;4.656;2022-09-13T05:12:02;13.93;;;8.40;;
68256;SDS011;55069;51.568;4.656;2022-09-13T05:14:28;13.65;;;8.13;;
68256;SDS011;55069;51.568;4.656;2022-09-13T05:16:53;11.10;;;7.73;;
68256;SDS011;55069;51.568;4.656;2022-09-13T05:19:19;10.40;;;7.35;;
68256;SDS011;55069;51.568;4.656;2022-09-13T05:21:44;10.97;;;7.47;;
68256;SDS011;55069;51.568;4.656;2022-09-13T05:24:10;10.80;;;7.63;;
68256;SDS011;55069;51.568;4.656;2022-09-13T05:26:36;10.80;;;7.60;;
68256;SDS011;55069;51.568;4.656;2022-09-13T05:29:02;8.40;;;6.60;;
68256;SDS011;55069;51.568;4.656;2022-09-13T05:31:32;10.30;;;7.50;;
68256;SDS011;55069;51.568;4.656;2022-09-13T05:34:07;12.85;;;8.05;;
68256;SDS011;55069;51.568;4.656;2022-09-13T05:36:35;9.40;;;7.18;;
68256;SDS011;55069;51.568;4.656;2022-09-13T05:39:01;9.83;;;6.60;;
68256;SDS011;55069;51.568;4.656;2022-09-13T05:41:26;9.57;;;5.82;;
68256;SDS011;55069;51.568;4.656;2022-09-13T05:43:52;8.95;;;7.13;;
68256;SDS011;55069;51.568;4.656;2022-09-13T05:46:19;10.33;;;7.53;;
68256;SDS011;55069;51.568;4.656;2022-09-13T05:48:45;10.90;;;6.28;;
68256;SDS011;55069;51.568;4.656;2022-09-13T05:51:19;9.43;;;6.88;;
68256;SDS011;55069;51.568;4.656;2022-09-13T05:53:47;15.07;;;8.55;;
68256;SDS011;55069;51.568;4.656;2022-09-13T05:56:15;11.10;;;6.00;;
68256;SDS011;55069;51.568;4.656;2022-09-13T05:58:48;12.53;;;7.10;;
68256;SDS011;55069;51.568;4.656;2022-09-13T06:01:16;10.80;;;7.55;;
68256;SDS011;55069;51.568;4.656;2022-09-13T06:03:45;11.05;;;7.18;;
68256;SDS011;55069;51.568;4.656;2022-09-13T06:06:12;10.23;;;7.05;;
68256;SDS011;55069;51.568;4.656;2022-09-13T06:08:37;10.43;;;6.47;;
68256;SDS011;55069;51.568;4.656;2022-09-13T06:11:04;10.63;;;7.07;;
68256;SDS011;55069;51.568;4.656;2022-09-13T06:13:32;9.52;;;6.75;;
68256;SDS011;55069;51.568;4.656;2022-09-13T06:15:59;8.57;;;6.65;;
68256;SDS011;55069;51.568;4.656;2022-09-13T06:18:26;13.88;;;7.90;;
68256;SDS011;55069;51.568;4.656;2022-09-13T06:21:03;15.30;;;7.83;;
68256;SDS011;55069;51.568;4.656;2022-09-13T06:23:30;13.00;;;7.93;;
68256;SDS011;55069;51.568;4.656;2022-09-13T06:26:14;9.90;;;7.50;;
68256;SDS011;55069;51.568;4.656;2022-09-13T06:28:41;13.75;;;9.50;;
68256;SDS011;55069;51.568;4.656;2022-09-13T06:31:11;14.60;;;8.80;;
68256;SDS011;55069;51.568;4.656;2022-09-13T06:33:39;14.30;;;9.27;;
68256;SDS011;55069;51.568;4.656;2022-09-13T06:36:07;14.25;;;9.25;;
68256;SDS011;55069;51.568;4.656;2022-09-13T06:38:35;18.77;;;9.45;;
68256;SDS011;55069;51.568;4.656;2022-09-13T06:41:05;13.88;;;10.48;;
68256;SDS011;55069;51.568;4.656;2022-09-13T06:43:31;17.98;;;11.57;;
68256;SDS011;55069;51.568;4.656;2022-09-13T06:45:59;22.45;;;11.48;;
68256;SDS011;55069;51.568;4.656;2022-09-13T06:48:30;22.98;;;11.02;;
68256;SDS011;55069;51.568;4.656;2022-09-13T06:50:58;19.38;;;11.05;;
68256;SDS011;55069;51.568;4.656;2022-09-13T06:53:28;25.60;;;11.73;;
68256;SDS011;55069;51.568;4.656;2022-09-13T06:56:01;19.98;;;11.77;;
68256;SDS011;55069;51.568;4.656;2022-09-13T06:58:34;20.92;;;12.27;;
68256;SDS011;55069;51.568;4.656;2022-09-13T07:01:11;21.02;;;13.00;;
68256;SDS011;55069;51.568;4.656;2022-09-13T07:03:46;20.35;;;12.88;;
68256;SDS011;55069;51.568;4.656;2022-09-13T07:06:17;24.00;;;12.75;;
68256;SDS011;55069;51.568;4.656;2022-09-13T07:08:48;23.83;;;13.02;;
68256;SDS011;55069;51.568;4.656;2022-09-13T07:11:16;20.45;;;12.90;;
68256;SDS011;55069;51.568;4.656;2022-09-13T07:13:49;21.48;;;14.32;;
68256;SDS011;55069;51.568;4.656;2022-09-13T07:16:16;22.60;;;14.70;;
68256;SDS011;55069;51.568;4.656;2022-09-13T07:18:43;27.48;;;15.60;;
68256;SDS011;55069;51.568;4.656;2022-09-13T07:21:10;27.60;;;14.73;;
68256;SDS011;55069;51.568;4.656;2022-09-13T07:23:37;22.73;;;14.93;;
68256;SDS011;55069;51.568;4.656;2022-09-13T07:26:04;20.98;;;15.07;;
68256;SDS011;55069;51.568;4.656;2022-09-13T07:28:32;21.27;;;15.52;;
68256;SDS011;55069;51.568;4.656;2022-09-13T07:31:03;20.70;;;15.40;;
68256;SDS011;55069;51.568;4.656;2022-09-13T07:33:56;22.48;;;16.55;;
68256;SDS011;55069;51.568;4.656;2022-09-13T07:36:23;22.60;;;15.40;;
68256;SDS011;55069;51.568;4.656;2022-09-13T07:38:49;23.65;;;15.48;;
68256;SDS011;55069;51.568;4.656;2022-09-13T07:41:22;20.90;;;16.08;;
68256;SDS011;55069;51.568;4.656;2022-09-13T07:43:49;22.23;;;15.20;;
68256;SDS011;55069;51.568;4.656;2022-09-13T07:46:25;24.35;;;15.20;;
68256;SDS011;55069;51.568;4.656;2022-09-13T07:48:53;21.75;;;15.73;;
68256;SDS011;55069;51.568;4.656;2022-09-13T07:51:21;27.50;;;17.10;;
68256;SDS011;55069;51.568;4.656;2022-09-13T07:53:48;23.52;;;16.80;;
68256;SDS011;55069;51.568;4.656;2022-09-13T07:56:16;25.17;;;17.33;;
68256;SDS011;55069;51.568;4.656;2022-09-13T07:58:46;24.92;;;15.90;;
68256;SDS011;55069;51.568;4.656;2022-09-13T08:01:17;24.35;;;16.17;;
68256;SDS011;55069;51.568;4.656;2022-09-13T08:03:55;21.55;;;15.02;;
68256;SDS011;55069;51.568;4.656;2022-09-13T08:06:23;23.40;;;15.80;;
68256;SDS011;55069;51.568;4.656;2022-09-13T08:08:50;24.15;;;16.05;;
68256;SDS011;55069;51.568;4.656;2022-09-13T08:11:17;22.50;;;15.63;;
68256;SDS011;55069;51.568;4.656;2022-09-13T08:13:47;23.38;;;16.38;;
68256;SDS011;55069;51.568;4.656;2022-09-13T08:16:16;24.40;;;16.05;;
68256;SDS011;55069;51.568;4.656;2022-09-13T08:18:43;24.35;;;16.65;;
68256;SDS011;55069;51.568;4.656;2022-09-13T08:21:10;22.00;;;14.93;;
68256;SDS011;55069;51.568;4.656;2022-09-13T08:23:35;24.40;;;15.57;;
68256;SDS011;55069;51.568;4.656;2022-09-13T08:26:01;23.60;;;15.20;;
68256;SDS011;55069;51.568;4.656;2022-09-13T08:28:27;29.63;;;14.13;;
68256;SDS011;55069;51.568;4.656;2022-09-13T08:30:54;19.63;;;13.35;;
68256;SDS011;55069;51.568;4.656;2022-09-13T08:33:19;20.55;;;14.18;;
68256;SDS011;55069;51.568;4.656;2022-09-13T08:35:49;19.77;;;12.80;;
68256;SDS011;55069;51.568;4.656;2022-09-13T08:38:15;20.08;;;11.25;;
68256;SDS011;55069;51.568;4.656;2022-09-13T08:40:42;12.47;;;9.90;;
68256;SDS011;55069;51.568;4.656;2022-09-13T08:48:38;10.82;;;7.75;;
68256;SDS011;55069;51.568;4.656;2022-09-13T08:51:13;11.02;;;6.53;;
68256;SDS011;55069;51.568;4.656;2022-09-13T08:53:59;8.50;;;5.40;;
68256;SDS011;55069;51.568;4.656;2022-09-13T08:56:32;8.82;;;5.18;;
68256;SDS011;55069;51.568;4.656;2022-09-13T08:59:15;9.48;;;4.72;;
68256;SDS011;55069;51.568;4.656;2022-09-13T09:07:45;7.60;;;5.60;;
68256;SDS011;55069;51.568;4.656;2022-09-13T09:12:46;11.43;;;6.10;;
68256;SDS011;55069;51.568;4.656;2022-09-13T09:15:47;9.00;;;6.47;;
68256;SDS011;55069;51.568;4.656;2022-09-13T09:18:24;8.95;;;6.20;;
68256;SDS011;55069;51.568;4.656;2022-09-13T09:20:55;9.13;;;5.90;;
68256;SDS011;55069;51.568;4.656;2022-09-13T09:26:19;8.90;;;7.47;;
68256;SDS011;55069;51.568;4.656;2022-09-13T09:28:49;12.85;;;6.88;;
68256;SDS011;55069;51.568;4.656;2022-09-13T09:36:29;11.23;;;6.03;;
68256;SDS011;55069;51.568;4.656;2022-09-13T09:39:04;14.82;;;6.82;;
68256;SDS011;55069;51.568;4.656;2022-09-13T09:41:32;10.13;;;5.95;;
68256;SDS011;55069;51.568;4.656;2022-09-13T09:46:46;8.80;;;5.90;;
68256;SDS011;55069;51.568;4.656;2022-09-13T09:52:15;7.95;;;5.57;;
68256;SDS011;55069;51.568;4.656;2022-09-13T09:54:43;12.55;;;5.80;;
68256;SDS011;55069;51.568;4.656;2022-09-13T09:57:10;8.88;;;6.13;;
68256;SDS011;55069;51.568;4.656;2022-09-13T09:59:37;12.10;;;5.03;;
68256;SDS011;55069;51.568;4.656;2022-09-13T10:02:16;8.45;;;4.80;;
68256;SDS011;55069;51.568;4.656;2022-09-13T10:04:57;6.68;;;3.47;;
68256;SDS011;55069;51.568;4.656;2022-09-13T10:07:29;7.03;;;3.85;;
68256;SDS011;55069;51.568;4.656;2022-09-13T10:09:58;4.40;;;4.00;;
68256;SDS011;55069;51.568;4.656;2022-09-13T10:12:28;5.20;;;3.38;;
68256;SDS011;55069;51.568;4.656;2022-09-13T10:17:30;5.85;;;3.30;;
68256;SDS011;55069;51.568;4.656;2022-09-13T10:19:59;6.28;;;3.80;;
68256;SDS011;55069;51.568;4.656;2022-09-13T10:22:26;6.97;;;3.20;;
68256;SDS011;55069;51.568;4.656;2022-09-13T10:24:53;4.77;;;2.97;;
68256;SDS011;55069;51.568;4.656;2022-09-13T10:30:00;7.45;;;3.10;;
68256;SDS011;55069;51.568;4.656;2022-09-13T10:32:27;4.13;;;2.80;;
68256;SDS011;55069;51.568;4.656;2022-09-13T10:34:54;4.97;;;2.85;;
68256;SDS011;55069;51.568;4.656;2022-09-13T10:37:25;4.50;;;2.37;;
68256;SDS011;55069;51.568;4.656;2022-09-13T10:40:01;5.90;;;2.60;;
68256;SDS011;55069;51.568;4.656;2022-09-13T10:42:28;5.45;;;3.58;;
68256;SDS011;55069;51.568;4.656;2022-09-13T10:45:01;6.70;;;3.42;;
68256;SDS011;55069;51.568;4.656;2022-09-13T10:47:36;3.90;;;3.47;;
68256;SDS011;55069;51.568;4.656;2022-09-13T10:50:18;6.13;;;3.63;;
68256;SDS011;55069;51.568;4.656;2022-09-13T10:52:47;4.05;;;3.58;;
68256;SDS011;55069;51.568;4.656;2022-09-13T10:57:45;5.63;;;3.80;;
68256;SDS011;55069;51.568;4.656;2022-09-13T11:00:16;5.47;;;3.63;;
68256;SDS011;55069;51.568;4.656;2022-09-13T11:05:44;4.43;;;3.40;;
68256;SDS011;55069;51.568;4.656;2022-09-13T11:18:50;3.85;;;3.47;;
68256;SDS011;55069;51.568;4.656;2022-09-13T11:21:29;6.35;;;3.75;;
68256;SDS011;55069;51.568;4.656;2022-09-13T11:26:45;5.55;;;3.70;;
68256;SDS011;55069;51.568;4.656;2022-09-13T11:29:28;6.83;;;3.80;;
68256;SDS011;55069;51.568;4.656;2022-09-13T11:32:04;6.30;;;3.40;;
68256;SDS011;55069;51.568;4.656;2022-09-13T11:40:27;6.72;;;3.42;;
68256;SDS011;55069;51.568;4.656;2022-09-13T11:43:18;9.50;;;3.97;;
68256;SDS011;55069;51.568;4.656;2022-09-13T11:56:58;6.83;;;4.30;;
68256;SDS011;55069;51.568;4.656;2022-09-13T11:59:34;6.65;;;4.45;;
68256;SDS011;55069;51.568;4.656;2022-09-13T12:02:18;5.85;;;4.35;;
68256;SDS011;55069;51.568;4.656;2022-09-13T12:05:06;5.95;;;4.03;;
68256;SDS011;55069;51.568;4.656;2022-09-13T12:07:37;5.50;;;4.07;;
68256;SDS011;55069;51.568;4.656;2022-09-13T12:10:08;4.70;;;3.50;;
68256;SDS011;55069;51.568;4.656;2022-09-13T12:12:40;5.68;;;3.58;;
68256;SDS011;55069;51.568;4.656;2022-09-13T12:15:41;4.35;;;3.95;;
68256;SDS011;55069;51.568;4.656;2022-09-13T12:18:15;9.93;;;4.03;;
68256;SDS011;55069;51.568;4.656;2022-09-13T12:20:47;8.57;;;4.20;;
68256;SDS011;55069;51.568;4.656;2022-09-13T12:23:27;6.53;;;4.07;;
68256;SDS011;55069;51.568;4.656;2022-09-13T12:26:01;7.68;;;4.18;;
68256;SDS011;55069;51.568;4.656;2022-09-13T12:28:33;7.13;;;4.55;;
68256;SDS011;55069;51.568;4.656;2022-09-13T12:31:09;5.25;;;4.10;;
68256;SDS011;55069;51.568;4.656;2022-09-13T12:33:40;9.48;;;4.78;;
68256;SDS011;55069;51.568;4.656;2022-09-13T12:52:30;7.43;;;4.35;;
68256;SDS011;55069;51.568;4.656;2022-09-13T13:00:31;7.90;;;4.32;;
68256;SDS011;55069;51.568;4.656;2022-09-13T13:11:07;6.20;;;4.75;;
68256;SDS011;55069;51.568;4.656;2022-09-13T13:13:37;9.98;;;4.25;;
68256;SDS011;55069;51.568;4.656;2022-09-13T13:18:49;7.72;;;3.97;;
68256;SDS011;55069;51.568;4.656;2022-09-13T13:21:30;6.45;;;4.00;;
68256;SDS011;55069;51.568;4.656;2022-09-13T13:29:12;7.20;;;3.93;;
68256;SDS011;55069;51.568;4.656;2022-09-13T13:31:42;6.38;;;3.80;;
68256;SDS011;55069;51.568;4.656;2022-09-13T13:34:39;4.25;;;3.40;;
68256;SDS011;55069;51.568;4.656;2022-09-13T13:39:34;5.83;;;3.80;;
68256;SDS011;55069;51.568;4.656;2022-09-13T13:49:43;5.60;;;4.00;;
68256;SDS011;55069;51.568;4.656;2022-09-13T13:54:59;7.78;;;3.35;;
68256;SDS011;55069;51.568;4.656;2022-09-13T13:57:39;8.68;;;2.80;;
68256;SDS011;55069;51.568;4.656;2022-09-13T14:00:26;4.78;;;2.65;;
68256;SDS011;55069;51.568;4.656;2022-09-13T14:05:21;8.98;;;3.20;;
68256;SDS011;55069;51.568;4.656;2022-09-13T14:13:43;5.75;;;2.80;;
68256;SDS011;55069;51.568;4.656;2022-09-13T14:16:17;8.02;;;3.50;;
68256;SDS011;55069;51.568;4.656;2022-09-13T14:21:20;9.07;;;3.30;;
68256;SDS011;55069;51.568;4.656;2022-09-13T14:23:46;8.98;;;3.10;;
68256;SDS011;55069;51.568;4.656;2022-09-13T14:26:12;6.07;;;3.37;;
68256;SDS011;55069;51.568;4.656;2022-09-13T14:28:37;5.95;;;3.08;;
68256;SDS011;55069;51.568;4.656;2022-09-13T14:31:04;7.10;;;2.97;;
68256;SDS011;55069;51.568;4.656;2022-09-13T14:33:34;4.30;;;2.57;;
68256;SDS011;55069;51.568;4.656;2022-09-13T14:36:05;12.10;;;2.85;;
68256;SDS011;55069;51.568;4.656;2022-09-13T14:38:34;4.93;;;2.40;;
68256;SDS011;55069;51.568;4.656;2022-09-13T14:41:11;4.80;;;2.45;;
68256;SDS011;55069;51.568;4.656;2022-09-13T14:43:39;5.22;;;1.80;;
68256;SDS011;55069;51.568;4.656;2022-09-13T14:46:09;5.80;;;2.00;;
68256;SDS011;55069;51.568;4.656;2022-09-13T14:51:22;3.10;;;2.13;;
68256;SDS011;55069;51.568;4.656;2022-09-13T14:53:56;6.65;;;2.63;;
68256;SDS011;55069;51.568;4.656;2022-09-13T14:58:58;8.80;;;2.42;;
68256;SDS011;55069;51.568;4.656;2022-09-13T15:01:26;8.05;;;2.33;;
68256;SDS011;55069;51.568;4.656;2022-09-13T15:03:55;6.35;;;1.95;;
68256;SDS011;55069;51.568;4.656;2022-09-13T15:06:29;5.80;;;2.30;;
68256;SDS011;55069;51.568;4.656;2022-09-13T15:11:35;6.00;;;1.90;;
68256;SDS011;55069;51.568;4.656;2022-09-13T15:14:23;6.72;;;2.10;;
68256;SDS011;55069;51.568;4.656;2022-09-13T15:19:47;7.10;;;2.47;;
68256;SDS011;55069;51.568;4.656;2022-09-13T15:24:47;8.05;;;2.80;;
68256;SDS011;55069;51.568;4.656;2022-09-13T15:27:24;6.85;;;2.47;;
68256;SDS011;55069;51.568;4.656;2022-09-13T15:29:59;7.13;;;2.80;;
68256;SDS011;55069;51.568;4.656;2022-09-13T15:32:28;6.00;;;2.67;;
68256;SDS011;55069;51.568;4.656;2022-09-13T15:34:57;8.15;;;2.58;;
68256;SDS011;55069;51.568;4.656;2022-09-13T15:37:28;5.55;;;2.40;;
68256;SDS011;55069;51.568;4.656;2022-09-13T15:40:17;8.18;;;2.50;;
68256;SDS011;55069;51.568;4.656;2022-09-13T15:42:49;7.97;;;2.80;;
68256;SDS011;55069;51.568;4.656;2022-09-13T15:45:16;6.22;;;1.92;;
68256;SDS011;55069;51.568;4.656;2022-09-13T15:47:45;6.10;;;2.10;;
68256;SDS011;55069;51.568;4.656;2022-09-13T15:50:19;6.68;;;2.50;;
68256;SDS011;55069;51.568;4.656;2022-09-13T15:52:46;7.47;;;2.60;;
68256;SDS011;55069;51.568;4.656;2022-09-13T15:55:12;6.73;;;2.37;;
68256;SDS011;55069;51.568;4.656;2022-09-13T15:57:38;5.05;;;2.33;;
68256;SDS011;55069;51.568;4.656;2022-09-13T16:00:03;7.65;;;2.17;;
68256;SDS011;55069;51.568;4.656;2022-09-13T16:02:34;5.95;;;2.65;;
68256;SDS011;55069;51.568;4.656;2022-09-13T16:05:00;6.70;;;2.33;;
68256;SDS011;55069;51.568;4.656;2022-09-13T16:07:26;5.90;;;2.33;;
68256;SDS011;55069;51.568;4.656;2022-09-13T16:09:52;5.00;;;2.53;;
68256;SDS011;55069;51.568;4.656;2022-09-13T16:12:18;5.40;;;2.80;;
68256;SDS011;55069;51.568;4.656;2022-09-13T16:14:46;7.43;;;2.80;;
68256;SDS011;55069;51.568;4.656;2022-09-13T16:17:19;4.73;;;2.33;;
68256;SDS011;55069;51.568;4.656;2022-09-13T16:19:45;6.28;;;2.85;;
68256;SDS011;55069;51.568;4.656;2022-09-13T16:22:11;5.20;;;2.60;;
68256;SDS011;55069;51.568;4.656;2022-09-13T16:24:36;3.75;;;1.45;;
68256;SDS011;55069;51.568;4.656;2022-09-13T16:27:02;2.60;;;1.00;;
68256;SDS011;55069;51.568;4.656;2022-09-13T16:29:29;4.80;;;1.30;;
68256;SDS011;55069;51.568;4.656;2022-09-13T16:31:54;4.57;;;1.30;;
68256;SDS011;55069;51.568;4.656;2022-09-13T16:34:21;5.07;;;0.90;;
68256;SDS011;55069;51.568;4.656;2022-09-13T16:36:47;5.05;;;1.30;;
68256;SDS011;55069;51.568;4.656;2022-09-13T16:39:13;10.70;;;1.30;;
68256;SDS011;55069;51.568;4.656;2022-09-13T16:41:38;4.00;;;1.08;;
68256;SDS011;55069;51.568;4.656;2022-09-13T16:44:04;6.73;;;1.27;;
68256;SDS011;55069;51.568;4.656;2022-09-13T16:46:30;3.80;;;0.80;;
68256;SDS011;55069;51.568;4.656;2022-09-13T16:48:56;4.60;;;1.00;;
68256;SDS011;55069;51.568;4.656;2022-09-13T16:51:22;4.78;;;0.88;;
68256;SDS011;55069;51.568;4.656;2022-09-13T16:53:49;5.32;;;0.65;;
68256;SDS011;55069;51.568;4.656;2022-09-13T16:56:16;3.70;;;0.90;;
68256;SDS011;55069;51.568;4.656;2022-09-13T16:58:44;7.10;;;0.80;;
68256;SDS011;55069;51.568;4.656;2022-09-13T17:01:14;4.65;;;1.00;;
68256;SDS011;55069;51.568;4.656;2022-09-13T17:03:41;3.67;;;0.95;;
68256;SDS011;55069;51.568;4.656;2022-09-13T17:06:08;4.03;;;1.10;;
68256;SDS011;55069;51.568;4.656;2022-09-13T17:08:37;2.58;;;0.80;;
68256;SDS011;55069;51.568;4.656;2022-09-13T17:11:04;4.25;;;0.80;;
68256;SDS011;55069;51.568;4.656;2022-09-13T17:13:31;8.68;;;1.10;;
68256;SDS011;55069;51.568;4.656;2022-09-13T17:15:57;8.60;;;1.20;;
68256;SDS011;55069;51.568;4.656;2022-09-13T17:18:23;4.63;;;0.73;;
68256;SDS011;55069;51.568;4.656;2022-09-13T17:20:49;9.03;;;0.93;;
68256;SDS011;55069;51.568;4.656;2022-09-13T17:23:15;4.10;;;0.88;;
68256;SDS011;55069;51.568;4.656;2022-09-13T17:25:47;5.13;;;0.77;;
68256;SDS011;55069;51.568;4.656;2022-09-13T17:28:14;6.10;;;1.00;;
68256;SDS011;55069;51.568;4.656;2022-09-13T17:30:41;3.13;;;0.80;;
68256;SDS011;55069;51.568;4.656;2022-09-13T17:33:08;7.25;;;1.48;;
68256;SDS011;55069;51.568;4.656;2022-09-13T17:35:34;5.93;;;0.90;;
68256;SDS011;55069;51.568;4.656;2022-09-13T17:38:01;3.50;;;0.80;;
68256;SDS011;55069;51.568;4.656;2022-09-13T17:40:27;4.70;;;0.80;;
68256;SDS011;55069;51.568;4.656;2022-09-13T17:42:53;2.93;;;0.70;;
68256;SDS011;55069;51.568;4.656;2022-09-13T17:45:20;5.40;;;1.05;;
68256;SDS011;55069;51.568;4.656;2022-09-13T17:47:46;3.80;;;0.95;;
68256;SDS011;55069;51.568;4.656;2022-09-13T17:50:12;3.25;;;0.70;;
68256;SDS011;55069;51.568;4.656;2022-09-13T17:52:39;5.15;;;0.77;;
68256;SDS011;55069;51.568;4.656;2022-09-13T17:55:04;5.17;;;0.70;;
68256;SDS011;55069;51.568;4.656;2022-09-13T17:57:31;4.43;;;0.80;;
68256;SDS011;55069;51.568;4.656;2022-09-13T17:59:57;3.35;;;0.80;;
68256;SDS011;55069;51.568;4.656;2022-09-13T18:02:23;4.93;;;1.00;;
68256;SDS011;55069;51.568;4.656;2022-09-13T18:04:50;5.05;;;1.20;;
68256;SDS011;55069;51.568;4.656;2022-09-13T18:07:16;8.93;;;0.93;;
68256;SDS011;55069;51.568;4.656;2022-09-13T18:09:42;9.65;;;0.90;;
68256;SDS011;55069;51.568;4.656;2022-09-13T18:12:08;4.30;;;1.00;;
68256;SDS011;55069;51.568;4.656;2022-09-13T18:14:34;8.18;;;1.05;;
68256;SDS011;55069;51.568;4.656;2022-09-13T18:17:00;5.22;;;1.10;;